Terminal Aerodrome Forecast
Issued by NWS

Home | Current Version | Previous Version | Text Only | Print | Product List | Glossary On
Versions: 1 2 3 4 5 6 7 8 9 10 11 12 13
000
FTUS44 KLIX 251700
TAFGPT
TAF
KGPT 251721Z 2518/2618 21009KT P6SM SCT030 BKN040
     FM260000 20007KT P6SM SCT035
     FM261200 30006KT P6SM SCT250=

USA.gov is the U.S. government's official web portal to all federal, state and local government web resources and services.